Sayville, NY (11782)

3:52 PM EDT en Septiembre 19, 2014 (GMT -0400)
KNYSAYVI4 | Change Station
CLOSE
Current Station
Estación meteorológica personal
Location: Sayville, NY
Altura: 36 ft
Estaciones meteorológicas cercanas

Alt 36 ft 40.75 °N, 73.10 °W | Updated 5 seconds ago

Despejado
Despejado
62.8 ° F
Sensación térmica 62.8 ° F
N
9.0
Viento Variable Viento desde SE
Gusts 14.0 mph

Hoy
Alta -- | Baja -- ° F
--% Posibilidad de precipitaciones
Ayer
Alta -- | Baja -- ° F
Precip. -- pul
6:36 AM 6:54 PM
Creciente menguante, 17% visible
Presión 30.34 pul
Visibilidad 10.0 Millas
Nubes Baja 5500 ft
Punto de rocío 50 ° F
Humedad 63%
Precipitaciones 0.00 pul
Espesor de la nieve No disponible.
UV 5 de una escala de 12
Polen 3.10 de una escala de 12
Calidad del aire No disponible.
Flu Activity No disponible.
METAR KISP 191856Z 04010G14KT 10SM FEW055 18/06 A3034 RMK AO2 SLP274 T01780056

More Conditions Fewer Conditions

Presión 30.34 pul
Visibilidad 10.0 Millas
Nubes Baja 5500 ft
Punto de rocío 50 ° F
Humedad 63%
Precipitaciones 0.00 pul
Espesor de la nieve No disponible.
UV 5 de una escala de 12
Polen 3.10 de una escala de 12
Calidad del aire No disponible.
Flu Activity No disponible.
METAR KISP 191856Z 04010G14KT 10SM FEW055 18/06 A3034 RMK AO2 SLP274 T01780056

More Conditions Fewer Conditions

10-Day Weather Forecast

Almanac

Astronomía

Sep. 19, 2014 Salida Puesta
Hora real 6:36 AM EDT 6:54 PM EDT
Crepúsculo civil 6:09 AM EDT 7:21 PM EDT
Crepúsculo náutico 5:37 AM EDT 7:54 PM EDT
Crepúsculo astronómico 5:04 AM EDT 8:26 PM EDT
Luna 2:18 AM EDT 4:22 PM EDT
Horas de luz 13h 12m
Horas de luz
12h 17m
Tomorrow will be 2m 40s shorter.
Creciente menguante, 17% of the Moon is Illuminated
Hoy
Creciente menguante
Sep 24
Nueva
Oct 1
Cuarto creciente
Oct 8
Luna llena
Oct 15
Cuarto menguante

Extremos de hoy

Máximos del estado Bajos del estado

Community

WunderPhotos

Upload Photos

1,754,687 ¡fotos cargadas!

WunderBlogs® & News

By Dr. Jeff Masters
Director of Meteorology, Weather Underground
By Kari Strenfel
Meteorologist, Weather Underground
By Christopher C. Burt
Weather Historian, Weather Underground
September 19, 2014
September 19, 2014
September 19, 2014

Nearby

Calidad del aire

  Calidad del aire Índice AQ Contaminante
Ayer Buena
OZONE
Viernes Buena
OZONE
Viernes Buena
PM2.5
Sábado Buena
OZONE
Sábado Buena
PM2.5
Domingo Buena
OZONE
Domingo Buena
PM2.5
Lunes Buena
OZONE
Lunes Buena
PM2.5

Grosos de nieve

Estación Profundido Altura
No tenemos constancia de nieve nueva.

Actividad de terremotos

Ciudad Distance Mag. Tiempo y dato
No hay informes recientes de la actividad sísmica.
Magnitud mínima muestra es 2,5.

Temperaturas de aguas costeras

Lugar Temperatura
Sin partes meteorológicos de las estaciones

Estaciones meteorológicas cercanas